Overton, Nevada
Current Conditions -  °F | °C
As of 1:58 AM on Sunday 23 Nov 2014 (Local Time) from KLSV Reporting Station
Clear Clear  
Wind Chill: 58°   Ceiling: Unl
Heat Index: 58°   Visibility: 10mi
Dew Point: 29°   Wind: 6mph
Humidity: 32%   Direction: NA
Pressure: 30.04"   Gusts: NA
Location:  36.54°N, 114.45°W
Report Text: KLSV 230958Z AUTO VRB05KT 10SM CLR 15/M02 A3004 RMK AO2 SLP162 T01471018
Loading
Personal Weather Stations






























Interactive Weather Map New forecast layout! Learn more

10-Day Weather Forecast

Advertisements
Track Severe Weather on mobile